Time;durP1;ratioP1;P1;durP2;ratioP2;P2;SDS_P1;SDS_P2;PMS_P1;PMS_P2;Temp;Humidity;BMP_temperature;BMP_pressure;BME280_temperature;BME280_humidity;BME280_pressure;Samples;Min_cycle;Max_cycle;Signal;HPM_P1;HPM_P2
2022/03/07 00:01:25;;;;;;;;;5.60;4.20;;;;;2.23;53.36;100896.13;5138446;27;8868;-64
2022/03/07 00:03:53;;;;;;;;;4.00;4.00;;;;;2.22;53.27;100897.03;5138678;27;8833;-64
2022/03/07 00:06:20;;;;;;;;;7.00;6.60;;;;;2.22;53.23;100899.66;5137942;27;8822;-64
2022/03/07 00:08:49;;;;;;;;;4.00;4.00;;;;;2.24;53.61;100897.84;5137603;27;8860;-64
2022/03/07 00:11:17;;;;;;;;;6.80;4.40;;;;;2.26;52.97;100897.78;5120429;27;8832;-64
2022/03/07 00:13:45;;;;;;;;;4.00;3.20;;;;;2.26;53.16;100901.25;5138441;27;8825;-64
2022/03/07 00:16:12;;;;;;;;;6.20;6.00;;;;;2.26;53.53;100903.88;5137960;27;8847;-64
2022/03/07 00:18:40;;;;;;;;;5.80;5.80;;;;;2.25;53.54;100910.06;5137877;27;8841;-64
2022/03/07 00:21:08;;;;;;;;;4.40;3.40;;;;;2.27;53.12;100912.66;5125927;27;8836;-64
2022/03/07 00:23:35;;;;;;;;;4.00;4.00;;;;;2.26;53.00;100909.16;5117018;28;8827;-64
2022/03/07 00:26:03;;;;;;;;;5.20;4.00;;;;;2.23;53.63;100906.63;5117790;28;8808;-63
2022/03/07 00:28:32;;;;;;;;;6.00;4.00;;;;;2.23;52.93;100914.50;5117127;28;8828;-63
2022/03/07 00:30:59;;;;;;;;;6.20;4.00;;;;;2.25;52.99;100917.94;5117346;28;8836;-64
2022/03/07 00:33:27;;;;;;;;;6.60;6.60;;;;;2.28;52.56;100915.22;5117354;28;8816;-64
2022/03/07 00:35:55;;;;;;;;;6.00;5.20;;;;;2.29;53.00;100913.44;5115127;28;8990;-64
2022/03/07 00:38:23;;;;;;;;;7.60;6.80;;;;;2.29;52.90;100911.66;5117220;28;8950;-64
2022/03/07 00:40:51;;;;;;;;;6.80;6.80;;;;;2.30;53.23;100913.41;5117062;28;8843;-64
2022/03/07 00:43:21;;;;;;;;;6.60;4.00;;;;;2.32;53.29;100911.59;5117342;28;8855;-63
2022/03/07 00:45:48;;;;;;;;;5.60;5.60;;;;;2.33;52.74;100910.69;5117228;28;8839;-64
2022/03/07 00:48:16;;;;;;;;;8.60;7.00;;;;;2.34;52.85;100915.03;5117619;28;8839;-64
2022/03/07 00:50:44;;;;;;;;;6.00;6.00;;;;;2.37;53.12;100919.34;5124995;27;8845;-64
2022/03/07 00:53:12;;;;;;;;;3.60;2.60;;;;;2.37;53.05;100917.56;5137222;27;8833;-64
2022/03/07 00:55:40;;;;;;;;;5.60;5.60;;;;;2.40;53.23;100920.09;5137543;27;8844;-64
2022/03/07 00:58:07;;;;;;;;;7.60;5.60;;;;;2.43;52.76;100920.00;5137750;27;8867;-64
2022/03/07 01:00:35;;;;;;;;;1.00;1.00;;;;;2.44;53.45;100916.44;5137579;27;8826;-64
2022/03/07 01:03:03;;;;;;;;;3.20;3.00;;;;;2.44;53.34;100915.59;5137478;27;8837;-63
2022/03/07 01:05:31;;;;;;;;;6.00;6.00;;;;;2.44;53.00;100916.44;5137456;27;8829;-64
2022/03/07 01:07:59;;;;;;;;;6.20;6.00;;;;;2.46;53.25;100913.78;5137411;27;8849;-64
2022/03/07 01:10:27;;;;;;;;;3.20;3.20;;;;;2.44;53.11;100911.19;5137271;27;8833;-64
2022/03/07 01:12:54;;;;;;;;;3.60;3.60;;;;;2.44;52.97;100911.19;5136707;27;8830;-63
2022/03/07 01:15:22;;;;;;;;;6.00;6.00;;;;;2.43;53.24;100912.09;5136212;27;8845;-64
2022/03/07 01:17:50;;;;;;;;;4.00;4.00;;;;;2.44;53.47;100918.22;5137559;27;8851;-69
2022/03/07 01:20:19;;;;;;;;;6.00;6.00;;;;;2.43;53.09;100917.34;5130021;27;8916;-64
2022/03/07 01:22:46;;;;;;;;;4.00;4.00;;;;;2.43;53.71;100911.25;5115874;28;8862;-65
2022/03/07 01:25:14;;;;;;;;;7.20;6.40;;;;;2.43;53.03;100909.47;5116708;28;8864;-63
2022/03/07 01:27:42;;;;;;;;;5.60;4.80;;;;;2.41;52.84;100905.19;5117009;28;8844;-64
2022/03/07 01:30:10;;;;;;;;;8.20;7.00;;;;;2.39;53.49;100907.88;5116559;28;8842;-64
2022/03/07 01:32:37;;;;;;;;;6.40;6.00;;;;;2.39;53.36;100907.88;5116681;28;8816;-64
2022/03/07 01:35:05;;;;;;;;;4.80;4.80;;;;;2.41;53.29;100907.84;5116004;28;8828;-64
2022/03/07 01:37:33;;;;;;;;;4.00;4.00;;;;;2.42;53.24;100907.75;5115858;28;8840;-64
2022/03/07 01:40:02;;;;;;;;;5.20;5.20;;;;;2.41;53.24;100911.31;5116152;28;8895;-68
2022/03/07 01:42:30;;;;;;;;;1.00;0.80;;;;;2.38;53.59;100903.53;5115920;28;8842;-64
2022/03/07 01:44:57;;;;;;;;;7.60;6.80;;;;;2.40;53.86;100906.09;5115684;28;8834;-64
2022/03/07 01:47:32;;;;;;;;;4.80;2.40;;;;;2.37;53.35;100900.94;5115798;28;8832;-63
2022/03/07 01:50:00;;;;;;;;;4.00;4.00;;;;;2.34;53.48;100898.41;5119051;27;8836;-63
2022/03/07 01:52:28;;;;;;;;;4.40;4.40;;;;;2.31;54.16;100902.00;5135405;27;8846;-64
2022/03/07 01:54:55;;;;;;;;;7.00;6.20;;;;;2.33;54.14;100907.19;5136143;27;8833;-64
2022/03/07 01:57:23;;;;;;;;;4.80;4.00;;;;;2.32;53.41;100901.09;5136153;27;8832;-64
2022/03/07 01:59:51;;;;;;;;;7.00;7.00;;;;;2.33;54.08;100901.91;5136204;27;8818;-64
2022/03/07 02:02:19;;;;;;;;;6.00;6.00;;;;;2.32;54.04;100895.81;5136195;27;8992;-64
2022/03/07 02:04:47;;;;;;;;;5.20;5.20;;;;;2.33;54.06;100905.44;5135828;27;8847;-64
2022/03/07 02:07:14;;;;;;;;;6.60;6.00;;;;;2.34;53.54;100904.50;5136323;27;8865;-64
2022/03/07 02:09:42;;;;;;;;;7.00;7.00;;;;;2.33;54.17;100905.44;5135997;27;8841;-64
2022/03/07 02:12:10;;;;;;;;;7.00;4.00;;;;;2.33;54.18;100901.91;5136399;27;8834;-64
2022/03/07 02:14:38;;;;;;;;;5.60;4.80;;;;;2.29;54.22;100906.41;5135353;27;8843;-63
2022/03/07 02:17:06;;;;;;;;;8.20;7.00;;;;;2.29;53.67;100898.53;5135662;27;8838;-64
2022/03/07 02:19:36;;;;;;;;;4.00;4.00;;;;;2.29;53.88;100895.91;5134549;27;8832;-64
2022/03/07 02:22:04;;;;;;;;;5.00;3.80;;;;;2.28;53.89;100896.81;5113764;28;8882;-64
2022/03/07 02:24:31;;;;;;;;;4.80;4.80;;;;;2.25;54.09;100889.03;5114312;28;8862;-64
2022/03/07 02:26:59;;;;;;;;;5.60;5.60;;;;;2.24;54.25;100887.31;5115056;28;8836;-64
2022/03/07 02:29:27;;;;;;;;;4.80;4.00;;;;;2.24;54.25;100895.22;5112505;28;8828;-64
2022/03/07 02:31:55;;;;;;;;;6.00;4.60;;;;;2.22;54.14;100881.28;5114514;28;8846;-63
2022/03/07 02:34:22;;;;;;;;;6.00;6.00;;;;;2.24;54.51;100891.72;5115316;28;8832;-64
2022/03/07 02:36:50;;;;;;;;;4.80;4.00;;;;;2.25;54.61;100883.78;5115276;28;8848;-64
2022/03/07 02:39:19;;;;;;;;;4.80;4.80;;;;;2.27;54.01;100884.59;5131033;27;8818;-63
2022/03/07 02:41:47;;;;;;;;;7.40;4.80;;;;;2.28;54.54;100888.09;5136272;27;8849;-63
2022/03/07 02:44:14;;;;;;;;;3.80;3.60;;;;;2.28;54.16;100893.34;5135935;27;8834;-64
2022/03/07 02:46:43;;;;;;;;;9.00;8.20;;;;;2.26;54.43;100888.13;5135724;27;8956;-64
2022/03/07 02:49:11;;;;;;;;;4.40;3.80;;;;;2.26;54.08;100893.38;5135843;27;8837;-63
2022/03/07 02:51:39;;;;;;;;;9.00;7.00;;;;;2.25;54.12;100896.94;5135849;27;8850;-64
2022/03/07 02:54:06;;;;;;;;;3.00;3.00;;;;;2.25;53.98;100889.03;5135856;27;8802;-64
2022/03/07 02:56:34;;;;;;;;;6.00;5.20;;;;;2.24;54.84;100892.56;5135131;27;9506;-63
2022/03/07 02:59:02;;;;;;;;;4.80;4.00;;;;;2.25;54.21;100894.28;5136085;27;8860;-64
2022/03/07 03:01:30;;;;;;;;;3.60;3.60;;;;;2.26;54.12;100892.53;5135783;27;8866;-64
2022/03/07 03:03:57;;;;;;;;;7.00;7.00;;;;;2.25;54.35;100894.28;5135565;27;8840;-64
2022/03/07 03:06:25;;;;;;;;;1.80;1.80;;;;;2.25;54.69;100894.28;5135598;27;8817;-64
2022/03/07 03:08:53;;;;;;;;;9.40;7.00;;;;;2.27;54.78;100895.09;5135780;27;8840;-64
2022/03/07 03:11:21;;;;;;;;;5.20;5.20;;;;;2.28;54.77;100899.44;5115917;28;8816;-64
2022/03/07 03:13:50;;;;;;;;;4.00;3.40;;;;;2.27;54.19;100895.09;5114722;28;8843;-64
2022/03/07 03:16:18;;;;;;;;;6.20;6.00;;;;;2.28;54.50;100899.44;5113247;28;8832;-64
2022/03/07 03:18:46;;;;;;;;;5.20;4.80;;;;;2.28;54.44;100899.44;5113500;28;8831;-64
2022/03/07 03:21:13;;;;;;;;;6.80;6.00;;;;;2.26;54.01;100901.25;5113267;28;8836;-63
2022/03/07 03:23:41;;;;;;;;;6.40;5.60;;;;;2.27;54.56;100902.13;5113615;28;8858;-65
2022/03/07 03:26:09;;;;;;;;;7.80;6.20;;;;;2.25;54.92;100909.19;5115073;28;8836;-64
2022/03/07 03:28:37;;;;;;;;;3.20;3.20;;;;;2.22;54.46;100904.91;5115400;28;8942;-64
2022/03/07 03:31:05;;;;;;;;;4.00;4.00;;;;;2.22;54.89;100909.28;5114680;28;8966;-64
2022/03/07 03:33:35;;;;;;;;;4.00;4.00;;;;;2.19;54.49;100912.88;5114887;28;8850;-65
2022/03/07 03:36:03;;;;;;;;;4.00;4.00;;;;;2.21;54.92;100918.09;5114849;28;8834;-64
2022/03/07 03:38:31;;;;;;;;;0.00;0.00;;;;;2.20;55.17;100919.00;5128873;27;8817;-64
2022/03/07 03:40:58;;;;;;;;;6.60;5.60;;;;;2.22;54.51;100925.94;5135327;27;8848;-64
2022/03/07 03:43:26;;;;;;;;;4.80;3.60;;;;;2.24;54.47;100916.22;5134910;27;9697;-63
2022/03/07 03:45:54;;;;;;;;;6.20;6.00;;;;;2.26;54.61;100917.03;5138064;27;8829;-64
2022/03/07 03:48:22;;;;;;;;;5.20;5.20;;;;;2.27;54.89;100924.00;5139009;27;8817;-64
2022/03/07 03:50:50;;;;;;;;;5.60;4.00;;;;;2.29;55.13;100923.97;5135156;27;8829;-65
2022/03/07 03:53:17;;;;;;;;;3.60;2.20;;;;;2.30;54.63;100912.53;5139195;27;8856;-64
2022/03/07 03:55:45;;;;;;;;;6.40;5.60;;;;;2.28;54.88;100925.72;5138292;27;8846;-64
2022/03/07 03:58:13;;;;;;;;;6.00;6.00;;;;;2.28;55.07;100920.47;5138305;27;8967;-64
2022/03/07 04:00:42;;;;;;;;;6.60;4.80;;;;;2.28;55.05;100927.50;5138266;27;9533;-66
2022/03/07 04:03:10;;;;;;;;;3.60;3.60;;;;;2.28;55.02;100925.72;5137880;27;9496;-64
2022/03/07 04:05:38;;;;;;;;;6.20;6.00;;;;;2.27;54.68;100923.16;5138079;27;8830;-65
2022/03/07 04:08:06;;;;;;;;;5.20;5.20;;;;;2.27;55.02;100924.00;5126342;27;8838;-64
2022/03/07 04:10:35;;;;;;;;;6.00;5.60;;;;;2.25;54.92;100925.81;5114425;28;8920;-64
2022/03/07 04:13:03;;;;;;;;;4.00;4.00;;;;;2.26;54.86;100924.06;5117087;28;8963;-64
2022/03/07 04:15:31;;;;;;;;;4.00;4.00;;;;;2.25;54.93;100922.31;5116952;28;8832;-64
2022/03/07 04:17:59;;;;;;;;;8.20;5.20;;;;;2.23;54.97;100927.66;5115890;28;8824;-64
2022/03/07 04:20:26;;;;;;;;;4.00;4.00;;;;;2.22;55.00;100920.66;5116786;28;8824;-64
2022/03/07 04:22:54;;;;;;;;;4.80;4.80;;;;;2.21;55.08;100928.59;5115002;28;8856;-64
2022/03/07 04:25:22;;;;;;;;;6.20;6.20;;;;;2.20;55.33;100925.09;5115671;28;8990;-64
2022/03/07 04:27:49;;;;;;;;;3.00;3.00;;;;;2.20;54.89;100925.09;5117841;28;8823;-64
2022/03/07 04:30:18;;;;;;;;;6.20;5.60;;;;;2.19;55.19;100923.38;5117973;27;8836;-64
2022/03/07 04:32:45;;;;;;;;;5.60;4.00;;;;;2.18;55.36;100924.28;5116833;28;9500;-64
2022/03/07 04:35:13;;;;;;;;;3.20;3.00;;;;;2.18;54.98;100921.66;5116704;28;9481;-64
2022/03/07 04:37:41;;;;;;;;;6.00;4.00;;;;;2.20;55.51;100921.63;5117225;28;8840;-64
2022/03/07 04:40:08;;;;;;;;;7.80;6.40;;;;;2.19;55.46;100915.50;5116529;28;8839;-64
2022/03/07 04:42:36;;;;;;;;;4.80;4.40;;;;;2.17;55.43;100912.06;5116435;28;8828;-64
2022/03/07 04:45:04;;;;;;;;;6.40;6.40;;;;;2.17;55.20;100919.06;5116823;28;8840;-63
2022/03/07 04:47:32;;;;;;;;;6.80;6.20;;;;;2.16;55.47;100920.84;5123306;27;8850;-64
2022/03/07 04:49:59;;;;;;;;;4.00;4.00;;;;;2.14;55.12;100919.16;5133665;27;8830;-64
2022/03/07 04:52:27;;;;;;;;;6.00;4.40;;;;;2.14;55.59;100921.78;5135604;27;8960;-64
2022/03/07 04:54:54;;;;;;;;;6.40;6.00;;;;;2.13;55.94;100920.09;5116575;28;8972;-64
2022/03/07 04:57:22;;;;;;;;;8.20;6.20;;;;;2.11;55.58;100921.91;5116863;28;8861;-64
2022/03/07 04:59:50;;;;;;;;;5.80;5.20;;;;;2.10;55.82;100926.28;5116541;28;8972;-64
2022/03/07 05:02:18;;;;;;;;;6.40;6.40;;;;;2.09;55.59;100927.19;5116990;28;8867;-64
2022/03/07 05:04:46;;;;;;;;;8.20;6.60;;;;;2.09;55.41;100928.94;5116315;28;8841;-64
2022/03/07 05:07:13;;;;;;;;;6.60;6.60;;;;;2.07;55.50;100926.38;5113253;28;9740;-64
2022/03/07 05:09:42;;;;;;;;;7.20;6.20;;;;;2.06;55.99;100923.78;5116240;28;8822;-63
2022/03/07 05:12:09;;;;;;;;;3.00;3.00;;;;;2.06;55.96;100921.16;5116368;28;8830;-64
2022/03/07 05:14:37;;;;;;;;;3.80;3.80;;;;;2.02;56.17;100919.53;5116881;28;8849;-65
2022/03/07 05:17:05;;;;;;;;;5.00;3.75;;;;;1.99;55.74;100915.22;5115873;28;8841;-63
2022/03/07 05:19:33;;;;;;;;;6.00;6.00;;;;;1.95;55.65;100920.59;5116594;28;8863;-64
2022/03/07 05:22:00;;;;;;;;;5.20;5.20;;;;;1.93;55.89;100922.41;5115743;28;8865;-64
2022/03/07 05:24:28;;;;;;;;;3.80;3.80;;;;;1.92;56.36;100926.84;5116050;28;8845;-64
2022/03/07 05:26:56;;;;;;;;;6.00;5.60;;;;;1.92;56.06;100925.97;5116653;27;8828;-63
2022/03/07 05:29:24;;;;;;;;;7.40;6.40;;;;;1.91;55.89;100927.72;5116240;28;8816;-63
2022/03/07 05:31:51;;;;;;;;;3.40;3.40;;;;;1.92;56.45;100928.59;5115771;28;8951;-63
2022/03/07 05:34:19;;;;;;;;;5.60;3.80;;;;;1.89;56.01;100926.91;5116057;28;8831;-63
2022/03/07 05:36:47;;;;;;;;;3.00;3.00;;;;;1.90;55.84;100933.88;5115752;28;8831;-63
2022/03/07 05:39:15;;;;;;;;;10.80;10.40;;;;;1.92;55.35;100941.72;5115487;28;8875;-64
2022/03/07 05:41:43;;;;;;;;;5.40;4.00;;;;;1.92;56.37;100929.47;5115778;28;8846;-64
2022/03/07 05:44:10;;;;;;;;;6.00;4.80;;;;;1.92;56.52;100939.09;5115766;28;8982;-64
2022/03/07 05:46:38;;;;;;;;;6.60;6.60;;;;;1.93;56.22;100930.31;5115300;28;8835;-64
2022/03/07 05:49:06;;;;;;;;;8.60;8.60;;;;;1.91;56.52;100943.47;5119434;27;9521;-64
2022/03/07 05:51:34;;;;;;;;;5.60;5.60;;;;;1.94;56.25;100940.75;5135550;27;8849;-64
2022/03/07 05:54:02;;;;;;;;;3.00;3.00;;;;;1.94;55.79;100943.41;5135578;27;8971;-68
2022/03/07 05:56:29;;;;;;;;;6.00;5.20;;;;;1.92;56.40;100946.97;5136030;27;8841;-64
2022/03/07 05:59:00;;;;;;;;;4.00;4.00;;;;;1.91;55.92;100948.72;5134673;27;8845;-64
2022/03/07 06:01:27;;;;;;;;;6.20;6.20;;;;;1.90;56.13;100944.38;5131467;27;8865;-64
2022/03/07 06:03:55;;;;;;;;;1.00;1.00;;;;;1.88;56.97;100954.06;5134715;27;8837;-64
2022/03/07 06:06:23;;;;;;;;;8.20;6.80;;;;;1.84;56.17;100948.94;5134589;27;8876;-64
2022/03/07 06:08:51;;;;;;;;;6.60;6.00;;;;;1.80;56.53;100942.91;5134281;27;8829;-64
2022/03/07 06:11:19;;;;;;;;;4.00;4.00;;;;;1.78;56.28;100951.75;5134544;27;8847;-64
2022/03/07 06:13:47;;;;;;;;;6.80;6.40;;;;;1.72;56.21;100942.28;5134924;27;8833;-64
2022/03/07 06:16:14;;;;;;;;;8.20;7.80;;;;;1.67;56.91;100956.44;5134058;27;8833;-64
2022/03/07 06:18:43;;;;;;;;;5.60;5.20;;;;;1.62;56.64;100946.06;5133751;27;8830;-64
2022/03/07 06:21:10;;;;;;;;;6.60;6.60;;;;;1.62;56.63;100953.06;5113793;28;8859;-64
2022/03/07 06:23:38;;;;;;;;;5.60;5.60;;;;;1.59;56.71;100951.38;5130534;27;8826;-64
2022/03/07 06:26:06;;;;;;;;;9.40;7.80;;;;;1.57;56.97;100949.69;5134866;27;8968;-64
2022/03/07 06:28:34;;;;;;;;;4.00;4.00;;;;;1.53;56.81;100951.53;5133479;27;8838;-64
2022/03/07 06:31:01;;;;;;;;;6.60;6.60;;;;;1.54;57.10;100962.91;5129940;27;8817;-64
2022/03/07 06:33:29;;;;;;;;;6.80;6.80;;;;;1.55;56.67;100955.00;5124055;27;8833;-64
2022/03/07 06:35:57;;;;;;;;;5.60;5.60;;;;;1.55;57.44;100959.38;5133551;27;8925;-64
2022/03/07 06:38:25;;;;;;;;;7.00;7.00;;;;;1.53;56.62;100956.78;5133784;27;8838;-64
2022/03/07 06:40:53;;;;;;;;;4.80;4.80;;;;;1.52;56.69;100957.69;5131434;27;8853;-65
2022/03/07 06:43:20;;;;;;;;;3.20;3.20;;;;;1.50;57.24;100956.88;5134112;27;8852;-64
2022/03/07 06:45:48;;;;;;;;;4.00;4.00;;;;;1.51;56.79;100963.84;5133774;27;8837;-64
2022/03/07 06:48:17;;;;;;;;;6.40;6.00;;;;;1.52;57.01;100968.19;5133442;27;8834;-64
2022/03/07 06:50:44;;;;;;;;;4.80;4.60;;;;;1.54;56.84;100963.78;5133271;27;8845;-64
2022/03/07 06:53:12;;;;;;;;;7.00;7.00;;;;;1.53;57.18;100962.03;5133512;27;8910;-64
2022/03/07 06:55:40;;;;;;;;;4.40;3.60;;;;;1.54;56.67;100957.66;5133074;27;8901;-64
2022/03/07 06:58:07;;;;;;;;;6.00;6.00;;;;;1.53;57.04;100962.03;5131278;27;8837;-64
2022/03/07 07:00:35;;;;;;;;;7.80;7.00;;;;;1.56;56.80;100969.84;5132228;27;8855;-64
2022/03/07 07:03:03;;;;;;;;;7.60;6.80;;;;;1.62;56.70;100967.06;5126319;28;8861;-64
2022/03/07 07:05:32;;;;;;;;;5.00;5.00;;;;;1.69;57.07;100957.25;5111695;28;8832;-64
2022/03/07 07:08:02;;;;;;;;;4.40;4.40;;;;;1.76;56.47;100970.16;5111766;28;8840;-64
2022/03/07 07:10:30;;;;;;;;;2.60;2.60;;;;;1.80;56.60;100969.16;5113632;28;8836;-64
2022/03/07 07:12:57;;;;;;;;;5.60;4.40;;;;;1.83;56.55;100973.47;5113235;28;8943;-67
2022/03/07 07:15:25;;;;;;;;;3.60;3.60;;;;;1.89;56.55;100974.16;5112916;28;8836;-64
2022/03/07 07:17:53;;;;;;;;;6.00;5.20;;;;;1.97;55.75;100972.19;5113112;28;8870;-64
2022/03/07 07:20:21;;;;;;;;;3.00;3.00;;;;;2.06;55.88;100969.28;5117615;28;8839;-64
2022/03/07 07:22:48;;;;;;;;;4.40;4.40;;;;;2.18;55.48;100975.94;5116778;28;8948;-64
2022/03/07 07:25:16;;;;;;;;;6.00;6.00;;;;;2.28;55.36;100977.41;5116886;28;8873;-65
2022/03/07 07:27:44;;;;;;;;;6.20;4.80;;;;;2.37;55.41;100978.00;5116205;28;8867;-66
2022/03/07 07:30:13;;;;;;;;;3.00;3.00;;;;;2.50;55.38;100976.72;5113733;28;8826;-64
2022/03/07 07:32:41;;;;;;;;;6.00;5.40;;;;;2.63;54.82;100979.81;5120518;27;8826;-64
2022/03/07 07:35:09;;;;;;;;;1.00;1.00;;;;;2.75;54.77;100974.19;5117851;27;9544;-64
2022/03/07 07:37:36;;;;;;;;;3.40;3.40;;;;;2.87;55.00;100979.06;5116188;28;8843;-64
2022/03/07 07:40:05;;;;;;;;;6.20;4.00;;;;;3.00;54.42;100976.00;5122780;27;8926;-64
2022/03/07 07:42:33;;;;;;;;;6.20;5.20;;;;;3.05;54.55;100973.22;5136584;27;8830;-68
2022/03/07 07:45:01;;;;;;;;;4.40;2.60;;;;;3.14;54.22;100967.63;5133467;27;8817;-64
2022/03/07 07:47:29;;;;;;;;;4.00;4.00;;;;;3.28;54.30;100965.41;5136411;27;8968;-64
2022/03/07 07:49:57;;;;;;;;;5.80;4.00;;;;;3.40;53.74;100971.13;5125702;27;8838;-64
2022/03/07 07:52:25;;;;;;;;;1.00;0.40;;;;;3.50;54.16;100980.44;5116595;28;8843;-64
2022/03/07 07:54:52;;;;;;;;;3.00;3.00;;;;;3.53;54.18;100975.06;5116248;28;8827;-65
2022/03/07 07:57:21;;;;;;;;;3.20;2.60;;;;;3.71;54.06;100973.56;5116290;27;8815;-64
2022/03/07 07:59:50;;;;;;;;;4.40;4.00;;;;;3.82;53.50;100970.47;5114461;28;8937;-64
2022/03/07 08:02:39;;;;;;;;;6.20;4.80;;;;;4.08;52.90;100967.75;5115873;28;8860;-65
2022/03/07 08:05:07;;;;;;;;;4.00;4.00;;;;;4.31;53.38;100969.53;5117755;27;8882;-64
2022/03/07 08:07:35;;;;;;;;;3.20;3.00;;;;;4.50;52.88;100967.91;5136431;27;8961;-68
2022/03/07 08:10:03;;;;;;;;;4.20;4.20;;;;;4.74;52.81;100965.19;5136762;27;8909;-64
2022/03/07 08:12:32;;;;;;;;;3.20;3.20;;;;;4.99;52.44;100972.97;5128453;27;8823;-64
2022/03/07 08:15:00;;;;;;;;;3.60;3.60;;;;;5.26;52.63;100958.66;5115586;28;8839;-65
2022/03/07 08:17:31;;;;;;;;;3.00;3.00;;;;;5.47;51.70;100957.75;5111836;28;8863;-65
2022/03/07 08:19:59;;;;;;;;;3.40;3.40;;;;;5.57;51.24;100957.28;5115729;28;8852;-66
2022/03/07 08:22:27;;;;;;;;;3.60;3.60;;;;;5.67;51.45;100960.38;5124773;27;8841;-65
2022/03/07 08:24:55;;;;;;;;;3.80;2.80;;;;;5.74;51.16;100957.41;5136085;27;8814;-64
2022/03/07 08:27:23;;;;;;;;;4.40;4.00;;;;;5.73;50.93;100966.25;5136160;27;9593;-64
2022/03/07 08:29:51;;;;;;;;;5.60;5.20;;;;;5.67;51.10;100971.81;5134880;27;8956;-64
2022/03/07 08:32:18;;;;;;;;;6.20;4.40;;;;;5.65;51.36;100965.75;5132997;27;8821;-65
2022/03/07 08:34:46;;;;;;;;;3.60;3.60;;;;;5.61;51.19;100972.06;5123721;27;8816;-65
2022/03/07 08:37:14;;;;;;;;;3.00;3.00;;;;;5.57;50.89;100972.25;5114823;28;8860;-64
2022/03/07 08:39:42;;;;;;;;;4.00;3.00;;;;;5.51;50.89;100975.16;5114524;28;8824;-64
2022/03/07 08:42:10;;;;;;;;;4.00;4.00;;;;;5.45;50.87;100967.50;5114217;28;8857;-64
2022/03/07 08:44:38;;;;;;;;;4.00;4.00;;;;;5.55;51.14;100980.25;5114709;28;8848;-65
2022/03/07 08:47:05;;;;;;;;;2.60;2.60;;;;;5.76;50.29;100981.13;5114064;28;8835;-64
2022/03/07 08:49:35;;;;;;;;;3.20;3.20;;;;;5.98;50.49;100977.50;5113326;28;8850;-66
2022/03/07 08:52:03;;;;;;;;;2.20;2.20;;;;;6.16;49.97;100971.38;5113891;28;8872;-64
2022/03/07 08:54:31;;;;;;;;;5.20;5.20;;;;;6.36;49.61;100963.41;5114658;28;8840;-65
2022/03/07 08:56:59;;;;;;;;;3.40;3.20;;;;;6.46;49.40;100964.69;5113656;28;8850;-65
2022/03/07 08:59:28;;;;;;;;;4.00;4.00;;;;;6.64;49.24;100962.97;5113213;28;9543;-64
2022/03/07 09:01:56;;;;;;;;;1.80;1.80;;;;;6.86;48.47;100955.72;5113715;28;8962;-64
2022/03/07 09:04:25;;;;;;;;;2.60;2.20;;;;;7.03;47.72;100961.03;5118371;27;8829;-65
2022/03/07 09:06:53;;;;;;;;;3.00;3.00;;;;;7.12;48.26;100955.31;5133979;27;8844;-64
2022/03/07 09:09:21;;;;;;;;;1.00;1.00;;;;;7.08;47.87;100953.75;5134367;27;8822;-64
2022/03/07 09:11:59;;;;;;;;;3.40;3.00;;;;;7.06;48.01;100950.31;5135476;27;8929;-65
2022/03/07 09:14:27;;;;;;;;;1.80;1.00;;;;;7.03;47.70;100947.78;5135147;27;8897;-64
2022/03/07 09:16:55;;;;;;;;;4.00;3.20;;;;;6.98;48.02;100952.47;5135087;27;8856;-65
2022/03/07 09:19:23;;;;;;;;;0.60;0.60;;;;;6.95;47.71;100952.63;5132007;27;8822;-66
2022/03/07 09:21:51;;;;;;;;;3.60;3.20;;;;;6.89;47.46;100947.63;5135222;27;9000;-64
2022/03/07 09:24:19;;;;;;;;;3.00;3.00;;;;;6.86;47.84;100955.72;5135066;27;8937;-66
2022/03/07 09:26:48;;;;;;;;;1.00;1.00;;;;;6.83;47.79;100947.94;5135537;27;8860;-65
2022/03/07 09:29:16;;;;;;;;;0.80;0.80;;;;;6.84;47.54;100952.28;5134898;27;8856;-65
2022/03/07 09:31:44;;;;;;;;;3.00;3.00;;;;;6.77;47.33;100948.22;5134988;27;8851;-64
2022/03/07 09:34:14;;;;;;;;;1.40;1.40;;;;;6.77;47.27;100948.22;5128908;27;8931;-64
2022/03/07 09:36:42;;;;;;;;;3.80;3.00;;;;;6.78;47.13;100944.63;5113644;28;8839;-64
2022/03/07 09:39:09;;;;;;;;;4.00;4.00;;;;;6.77;47.32;100954.38;5112901;28;9810;-65
2022/03/07 09:41:38;;;;;;;;;3.40;3.00;;;;;6.81;46.91;100944.50;5113207;28;8854;-64
2022/03/07 09:44:05;;;;;;;;;1.40;1.00;;;;;6.88;47.13;100940.59;5112994;28;8835;-65
2022/03/07 09:46:33;;;;;;;;;1.40;1.40;;;;;6.96;46.72;100949.06;5114269;28;8827;-65
2022/03/07 09:49:02;;;;;;;;;1.80;1.80;;;;;7.02;46.88;100940.78;5113634;28;8852;-64
2022/03/07 09:51:30;;;;;;;;;4.00;4.00;;;;;7.03;46.63;100945.16;5113512;28;8844;-64
2022/03/07 09:53:58;;;;;;;;;1.00;1.00;;;;;7.06;46.94;100947.66;5113426;28;8820;-65
2022/03/07 09:56:29;;;;;;;;;1.00;1.00;;;;;7.12;46.47;100934.97;5112176;28;8812;-64
2022/03/07 09:58:57;;;;;;;;;1.40;1.00;;;;;7.17;46.33;100938.25;5113404;28;8836;-64
2022/03/07 10:01:25;;;;;;;;;3.00;3.00;;;;;7.25;46.69;100930.78;5113534;28;8827;-64
2022/03/07 10:03:53;;;;;;;;;4.00;3.80;;;;;7.39;45.95;100938.91;5117485;27;8824;-65
2022/03/07 10:06:20;;;;;;;;;3.40;3.40;;;;;7.60;45.90;100932.50;5134253;27;8959;-64
2022/03/07 10:08:49;;;;;;;;;1.00;1.00;;;;;7.82;45.47;100925.13;5133251;27;8845;-64
2022/03/07 10:11:18;;;;;;;;;0.40;0.40;;;;;8.06;45.31;100929.16;5132668;27;8960;-64
2022/03/07 10:13:46;;;;;;;;;1.40;1.00;;;;;8.30;44.53;100920.72;5132019;27;8830;-65
2022/03/07 10:16:13;;;;;;;;;6.00;4.00;;;;;8.70;44.32;100925.56;5132766;27;8830;-64
2022/03/07 10:18:42;;;;;;;;;1.80;1.80;;;;;9.58;43.40;100916.75;5133100;27;8821;-64
2022/03/07 10:21:09;;;;;;;;;4.40;4.00;;;;;10.74;41.21;100912.09;5133861;27;9016;-64
2022/03/07 10:23:37;;;;;;;;;2.50;2.50;;;;;11.68;39.67;100902.19;5132847;27;8841;-64
2022/03/07 10:26:05;;;;;;;;;3.00;3.00;;;;;12.60;38.80;100892.78;5134239;27;8996;-64
2022/03/07 10:28:33;;;;;;;;;2.50;1.00;;;;;13.42;37.65;100892.84;5133748;27;8833;-64
2022/03/07 10:31:01;;;;;;;;;3.00;3.00;;;;;14.14;36.87;100889.81;5122894;27;8822;-64
2022/03/07 10:33:31;;;;;;;;;3.50;3.50;;;;;14.90;36.59;100883.56;5129005;27;8970;-64
2022/03/07 10:35:59;;;;;;;;;2.50;2.50;;;;;15.44;35.68;100880.78;5111567;28;8840;-65
2022/03/07 10:38:28;;;;;;;;;4.00;4.00;;;;;15.84;35.45;100871.06;5112083;28;8882;-64
2022/03/07 10:40:56;;;;;;;;;4.00;4.00;;;;;16.27;34.88;100868.00;5129879;27;8833;-65
2022/03/07 10:43:24;;;;;;;;;3.75;3.00;;;;;16.68;34.74;100859.81;5124735;27;8832;-64
2022/03/07 10:45:52;;;;;;;;;4.00;4.00;;;;;17.01;34.36;100859.44;5133838;27;8841;-64
2022/03/07 10:48:20;;;;;;;;;3.25;3.25;;;;;17.33;33.49;100860.00;5128465;28;8816;-65
2022/03/07 10:50:48;;;;;;;;;3.00;3.00;;;;;17.47;33.36;100854.22;5113109;28;8832;-65
2022/03/07 10:53:16;;;;;;;;;3.50;3.00;;;;;17.76;33.03;100857.72;5114083;28;9744;-65
2022/03/07 10:55:44;;;;;;;;;3.50;3.50;;;;;18.15;33.15;100853.91;5116322;28;8832;-65
2022/03/07 10:58:12;;;;;;;;;6.00;4.00;;;;;18.45;32.27;100845.56;5118677;27;9921;-65
2022/03/07 11:00:39;;;;;;;;;4.00;4.00;;;;;18.52;32.61;100848.53;5134267;27;8921;-65
2022/03/07 11:03:07;;;;;;;;;4.00;4.00;;;;;18.77;31.70;100843.25;5136222;27;9775;-64
2022/03/07 11:05:35;;;;;;;;;6.50;4.50;;;;;18.95;31.68;100838.72;5137045;27;8903;-64
2022/03/07 11:08:03;;;;;;;;;6.50;4.50;;;;;19.01;31.71;100829.16;5136782;27;8852;-64
2022/03/07 11:10:31;;;;;;;;;6.00;6.00;;;;;19.02;31.55;100822.75;5136105;27;8952;-64
2022/03/07 11:12:59;;;;;;;;;5.50;5.00;;;;;19.05;31.50;100817.06;5136230;27;8854;-64
2022/03/07 11:15:27;;;;;;;;;7.00;7.00;;;;;19.20;31.10;100827.16;5136165;27;8837;-67
2022/03/07 11:17:54;;;;;;;;;3.20;3.20;;;;;19.56;30.62;100809.09;5134969;27;8884;-64
2022/03/07 11:20:22;;;;;;;;;6.00;5.60;;;;;19.63;31.54;100810.97;5093374;28;8857;-64
2022/03/07 11:22:50;;;;;;;;;5.60;4.00;;;;;19.69;31.00;100812.19;5093765;28;8872;-64
2022/03/07 11:25:18;;;;;;;;;4.40;4.00;;;;;19.46;30.56;100802.91;5095236;28;9522;-64
2022/03/07 11:27:47;;;;;;;;;5.60;4.80;;;;;19.16;31.15;100803.28;5094568;28;8834;-64
2022/03/07 11:30:16;;;;;;;;;6.20;5.20;;;;;19.10;31.29;100802.06;5093846;28;8912;-65
2022/03/07 11:32:43;;;;;;;;;4.00;4.00;;;;;19.18;31.01;100806.72;5095019;28;8923;-64
2022/03/07 11:35:11;;;;;;;;;4.00;4.00;;;;;19.51;30.82;100793.31;5093466;28;8846;-68
2022/03/07 11:37:39;;;;;;;;;3.60;3.60;;;;;19.99;30.43;100787.38;5092955;28;8873;-64
2022/03/07 11:40:07;;;;;;;;;3.80;3.00;;;;;20.20;29.97;100787.84;5093467;28;8852;-64
2022/03/07 11:42:35;;;;;;;;;5.20;5.20;;;;;20.28;29.88;100783.31;5092473;28;8867;-64
2022/03/07 11:45:03;;;;;;;;;4.80;4.40;;;;;20.39;29.77;100779.47;5094667;28;8984;-65